sensor_id;sensor_type;location;lat;lon;timestamp;temperature;humidity
69895;DHT22;57172;52.034;5.090;2023-02-11T00:00:19;7.40;75.50
69895;DHT22;57172;52.034;5.090;2023-02-11T00:02:46;7.40;75.70
69895;DHT22;57172;52.034;5.090;2023-02-11T00:05:14;7.40;75.80
69895;DHT22;57172;52.034;5.090;2023-02-11T00:07:41;7.40;75.70
69895;DHT22;57172;52.034;5.090;2023-02-11T00:10:08;7.40;75.80
69895;DHT22;57172;52.034;5.090;2023-02-11T00:12:35;7.40;75.80
69895;DHT22;57172;52.034;5.090;2023-02-11T00:15:03;7.50;75.80
69895;DHT22;57172;52.034;5.090;2023-02-11T00:17:31;7.50;75.70
69895;DHT22;57172;52.034;5.090;2023-02-11T00:19:58;7.50;75.70
69895;DHT22;57172;52.034;5.090;2023-02-11T00:22:25;7.40;75.80
69895;DHT22;57172;52.034;5.090;2023-02-11T00:24:52;7.40;75.90
69895;DHT22;57172;52.034;5.090;2023-02-11T00:27:19;7.40;75.90
69895;DHT22;57172;52.034;5.090;2023-02-11T00:29:46;7.40;75.90
69895;DHT22;57172;52.034;5.090;2023-02-11T00:32:13;7.40;75.90
69895;DHT22;57172;52.034;5.090;2023-02-11T00:34:40;7.40;75.90
69895;DHT22;57172;52.034;5.090;2023-02-11T00:37:07;7.40;75.90
69895;DHT22;57172;52.034;5.090;2023-02-11T00:39:34;7.40;75.90
69895;DHT22;57172;52.034;5.090;2023-02-11T00:42:02;7.40;75.90
69895;DHT22;57172;52.034;5.090;2023-02-11T00:44:29;7.40;76.10
69895;DHT22;57172;52.034;5.090;2023-02-11T00:46:56;7.40;76.10
69895;DHT22;57172;52.034;5.090;2023-02-11T00:49:23;7.40;76.00
69895;DHT22;57172;52.034;5.090;2023-02-11T00:51:50;7.40;76.00
69895;DHT22;57172;52.034;5.090;2023-02-11T00:54:18;7.40;76.10
69895;DHT22;57172;52.034;5.090;2023-02-11T00:56:45;7.40;76.00
69895;DHT22;57172;52.034;5.090;2023-02-11T00:59:12;7.40;76.00
69895;DHT22;57172;52.034;5.090;2023-02-11T01:01:42;7.40;76.10
69895;DHT22;57172;52.034;5.090;2023-02-11T01:04:10;7.40;76.10
69895;DHT22;57172;52.034;5.090;2023-02-11T01:06:36;7.40;76.10
69895;DHT22;57172;52.034;5.090;2023-02-11T01:09:04;7.40;76.00
69895;DHT22;57172;52.034;5.090;2023-02-11T01:11:34;7.40;76.00
69895;DHT22;57172;52.034;5.090;2023-02-11T01:14:01;7.40;75.90
69895;DHT22;57172;52.034;5.090;2023-02-11T01:16:28;7.40;76.00
69895;DHT22;57172;52.034;5.090;2023-02-11T01:18:55;7.40;76.10
69895;DHT22;57172;52.034;5.090;2023-02-11T01:21:22;7.40;76.10
69895;DHT22;57172;52.034;5.090;2023-02-11T01:23:50;7.30;76.20
69895;DHT22;57172;52.034;5.090;2023-02-11T01:26:17;7.40;76.10
69895;DHT22;57172;52.034;5.090;2023-02-11T01:28:44;7.30;76.20
69895;DHT22;57172;52.034;5.090;2023-02-11T01:31:11;7.30;76.20
69895;DHT22;57172;52.034;5.090;2023-02-11T01:33:38;7.30;76.10
69895;DHT22;57172;52.034;5.090;2023-02-11T01:36:05;7.30;76.10
69895;DHT22;57172;52.034;5.090;2023-02-11T01:38:33;7.30;76.10
69895;DHT22;57172;52.034;5.090;2023-02-11T01:41:04;7.30;76.00
69895;DHT22;57172;52.034;5.090;2023-02-11T01:43:34;7.30;76.10
69895;DHT22;57172;52.034;5.090;2023-02-11T01:46:30;7.30;76.00
69895;DHT22;57172;52.034;5.090;2023-02-11T01:49:20;7.30;76.00
69895;DHT22;57172;52.034;5.090;2023-02-11T01:52:05;7.30;76.10
69895;DHT22;57172;52.034;5.090;2023-02-11T01:54:35;7.30;76.00
69895;DHT22;57172;52.034;5.090;2023-02-11T01:57:24;7.30;76.20
69895;DHT22;57172;52.034;5.090;2023-02-11T02:02:55;7.30;76.10
69895;DHT22;57172;52.034;5.090;2023-02-11T02:05:48;7.20;76.10
69895;DHT22;57172;52.034;5.090;2023-02-11T02:11:03;7.20;76.10
69895;DHT22;57172;52.034;5.090;2023-02-11T02:13:32;7.20;76.10
69895;DHT22;57172;52.034;5.090;2023-02-11T02:16:01;7.10;76.20
69895;DHT22;57172;52.034;5.090;2023-02-11T02:21:47;7.10;76.20
69895;DHT22;57172;52.034;5.090;2023-02-11T02:30:11;7.00;76.40
69895;DHT22;57172;52.034;5.090;2023-02-11T02:32:57;7.00;76.40
69895;DHT22;57172;52.034;5.090;2023-02-11T02:36:27;6.90;76.50
69895;DHT22;57172;52.034;5.090;2023-02-11T02:39:11;6.90;76.60
69895;DHT22;57172;52.034;5.090;2023-02-11T02:41:39;6.90;76.90
69895;DHT22;57172;52.034;5.090;2023-02-11T02:44:10;6.90;76.90
69895;DHT22;57172;52.034;5.090;2023-02-11T02:46:37;6.80;77.10
69895;DHT22;57172;52.034;5.090;2023-02-11T02:49:09;6.80;77.10
69895;DHT22;57172;52.034;5.090;2023-02-11T03:02:37;6.60;78.00
69895;DHT22;57172;52.034;5.090;2023-02-11T03:07:58;6.50;78.40
69895;DHT22;57172;52.034;5.090;2023-02-11T03:10:37;6.50;78.40
69895;DHT22;57172;52.034;5.090;2023-02-11T03:13:06;6.40;78.40
69895;DHT22;57172;52.034;5.090;2023-02-11T03:15:37;6.40;78.50
69895;DHT22;57172;52.034;5.090;2023-02-11T03:18:09;6.40;79.10
69895;DHT22;57172;52.034;5.090;2023-02-11T03:20:39;6.30;79.30
69895;DHT22;57172;52.034;5.090;2023-02-11T03:26:16;6.30;79.30
69895;DHT22;57172;52.034;5.090;2023-02-11T03:31:21;6.20;79.30
69895;DHT22;57172;52.034;5.090;2023-02-11T03:34:03;6.20;79.40
69895;DHT22;57172;52.034;5.090;2023-02-11T03:36:40;6.20;79.50
69895;DHT22;57172;52.034;5.090;2023-02-11T03:39:14;6.10;79.80
69895;DHT22;57172;52.034;5.090;2023-02-11T03:41:43;6.10;80.00
69895;DHT22;57172;52.034;5.090;2023-02-11T03:44:13;6.10;80.00
69895;DHT22;57172;52.034;5.090;2023-02-11T03:46:47;6.10;79.90
69895;DHT22;57172;52.034;5.090;2023-02-11T03:49:17;6.10;80.20
69895;DHT22;57172;52.034;5.090;2023-02-11T03:51:48;6.10;80.30
69895;DHT22;57172;52.034;5.090;2023-02-11T03:54:20;6.10;80.40
69895;DHT22;57172;52.034;5.090;2023-02-11T03:56:53;6.00;80.50
69895;DHT22;57172;52.034;5.090;2023-02-11T03:59:20;6.00;80.50
69895;DHT22;57172;52.034;5.090;2023-02-11T04:01:47;6.00;80.50
69895;DHT22;57172;52.034;5.090;2023-02-11T04:04:14;6.00;80.60
69895;DHT22;57172;52.034;5.090;2023-02-11T04:06:41;6.00;80.70
69895;DHT22;57172;52.034;5.090;2023-02-11T04:09:10;6.00;80.60
69895;DHT22;57172;52.034;5.090;2023-02-11T04:11:37;5.90;80.70
69895;DHT22;57172;52.034;5.090;2023-02-11T04:14:04;5.90;80.70
69895;DHT22;57172;52.034;5.090;2023-02-11T04:16:31;5.90;80.70
69895;DHT22;57172;52.034;5.090;2023-02-11T04:18:57;5.90;80.70
69895;DHT22;57172;52.034;5.090;2023-02-11T04:21:24;5.90;80.90
69895;DHT22;57172;52.034;5.090;2023-02-11T04:23:51;5.90;81.10
69895;DHT22;57172;52.034;5.090;2023-02-11T04:26:18;5.90;81.00
69895;DHT22;57172;52.034;5.090;2023-02-11T04:28:45;5.90;81.10
69895;DHT22;57172;52.034;5.090;2023-02-11T04:31:12;5.90;81.20
69895;DHT22;57172;52.034;5.090;2023-02-11T04:33:39;5.90;81.20
69895;DHT22;57172;52.034;5.090;2023-02-11T04:36:06;5.90;81.10
69895;DHT22;57172;52.034;5.090;2023-02-11T04:38:33;5.90;81.00
69895;DHT22;57172;52.034;5.090;2023-02-11T04:40:59;5.90;80.90
69895;DHT22;57172;52.034;5.090;2023-02-11T04:43:26;5.90;81.00
69895;DHT22;57172;52.034;5.090;2023-02-11T04:45:56;5.90;81.10
69895;DHT22;57172;52.034;5.090;2023-02-11T04:48:24;6.00;81.20
69895;DHT22;57172;52.034;5.090;2023-02-11T04:50:51;6.00;81.30
69895;DHT22;57172;52.034;5.090;2023-02-11T04:53:18;6.00;81.40
69895;DHT22;57172;52.034;5.090;2023-02-11T04:55:48;6.00;81.30
69895;DHT22;57172;52.034;5.090;2023-02-11T04:58:17;6.10;81.20
69895;DHT22;57172;52.034;5.090;2023-02-11T05:00:45;6.10;81.10
69895;DHT22;57172;52.034;5.090;2023-02-11T05:03:14;6.10;81.00
69895;DHT22;57172;52.034;5.090;2023-02-11T05:05:42;6.10;81.00
69895;DHT22;57172;52.034;5.090;2023-02-11T05:08:09;6.10;80.90
69895;DHT22;57172;52.034;5.090;2023-02-11T05:10:37;6.20;80.80
69895;DHT22;57172;52.034;5.090;2023-02-11T05:13:04;6.20;80.60
69895;DHT22;57172;52.034;5.090;2023-02-11T05:15:30;6.20;80.70
69895;DHT22;57172;52.034;5.090;2023-02-11T05:17:57;6.20;80.70
69895;DHT22;57172;52.034;5.090;2023-02-11T05:20:24;6.20;80.80
69895;DHT22;57172;52.034;5.090;2023-02-11T05:22:51;6.20;80.80
69895;DHT22;57172;52.034;5.090;2023-02-11T05:25:18;6.30;80.90
69895;DHT22;57172;52.034;5.090;2023-02-11T05:27:46;6.20;80.90
69895;DHT22;57172;52.034;5.090;2023-02-11T05:30:13;6.20;80.90
69895;DHT22;57172;52.034;5.090;2023-02-11T05:32:40;6.20;81.00
69895;DHT22;57172;52.034;5.090;2023-02-11T05:35:07;6.20;81.10
69895;DHT22;57172;52.034;5.090;2023-02-11T05:37:35;6.30;81.20
69895;DHT22;57172;52.034;5.090;2023-02-11T05:40:02;6.30;81.40
69895;DHT22;57172;52.034;5.090;2023-02-11T05:42:29;6.30;81.30
69895;DHT22;57172;52.034;5.090;2023-02-11T05:44:56;6.40;81.30
69895;DHT22;57172;52.034;5.090;2023-02-11T05:47:23;6.40;81.30
69895;DHT22;57172;52.034;5.090;2023-02-11T05:49:50;6.40;81.20
69895;DHT22;57172;52.034;5.090;2023-02-11T05:52:20;6.40;81.10
69895;DHT22;57172;52.034;5.090;2023-02-11T05:54:47;6.50;81.10
69895;DHT22;57172;52.034;5.090;2023-02-11T05:57:14;6.50;81.00
69895;DHT22;57172;52.034;5.090;2023-02-11T05:59:42;6.50;80.90
69895;DHT22;57172;52.034;5.090;2023-02-11T06:02:09;6.50;81.10
69895;DHT22;57172;52.034;5.090;2023-02-11T06:04:36;6.60;81.10
69895;DHT22;57172;52.034;5.090;2023-02-11T06:07:04;6.60;81.00
69895;DHT22;57172;52.034;5.090;2023-02-11T06:09:31;6.60;81.00
69895;DHT22;57172;52.034;5.090;2023-02-11T06:11:57;6.60;81.00
69895;DHT22;57172;52.034;5.090;2023-02-11T06:14:24;6.70;81.10
69895;DHT22;57172;52.034;5.090;2023-02-11T06:16:51;6.70;81.10
69895;DHT22;57172;52.034;5.090;2023-02-11T06:19:18;6.70;81.10
69895;DHT22;57172;52.034;5.090;2023-02-11T06:21:45;6.70;81.10
69895;DHT22;57172;52.034;5.090;2023-02-11T06:24:11;6.70;81.10
69895;DHT22;57172;52.034;5.090;2023-02-11T06:26:38;6.80;81.00
69895;DHT22;57172;52.034;5.090;2023-02-11T06:29:05;6.80;81.00
69895;DHT22;57172;52.034;5.090;2023-02-11T06:31:32;6.80;80.90
69895;DHT22;57172;52.034;5.090;2023-02-11T06:33:59;6.80;80.90
69895;DHT22;57172;52.034;5.090;2023-02-11T06:36:26;6.80;80.80
69895;DHT22;57172;52.034;5.090;2023-02-11T06:38:54;6.90;80.70
69895;DHT22;57172;52.034;5.090;2023-02-11T06:41:21;6.90;80.70
69895;DHT22;57172;52.034;5.090;2023-02-11T06:43:48;6.90;80.80
69895;DHT22;57172;52.034;5.090;2023-02-11T06:46:15;6.90;80.80
69895;DHT22;57172;52.034;5.090;2023-02-11T06:48:42;6.90;80.80
69895;DHT22;57172;52.034;5.090;2023-02-11T06:51:11;7.00;80.90
69895;DHT22;57172;52.034;5.090;2023-02-11T06:53:45;6.90;80.90
69895;DHT22;57172;52.034;5.090;2023-02-11T06:56:15;7.00;80.90
69895;DHT22;57172;52.034;5.090;2023-02-11T06:58:42;7.00;80.80
69895;DHT22;57172;52.034;5.090;2023-02-11T07:01:12;7.00;80.90
69895;DHT22;57172;52.034;5.090;2023-02-11T07:03:42;7.00;80.90
69895;DHT22;57172;52.034;5.090;2023-02-11T07:06:13;7.00;81.00
69895;DHT22;57172;52.034;5.090;2023-02-11T07:08:40;7.10;81.00
69895;DHT22;57172;52.034;5.090;2023-02-11T07:11:16;7.00;80.90
69895;DHT22;57172;52.034;5.090;2023-02-11T07:13:43;7.10;80.90
69895;DHT22;57172;52.034;5.090;2023-02-11T07:16:13;7.10;81.10
69895;DHT22;57172;52.034;5.090;2023-02-11T07:18:41;7.10;81.00
69895;DHT22;57172;52.034;5.090;2023-02-11T07:21:09;7.10;80.90
69895;DHT22;57172;52.034;5.090;2023-02-11T07:23:37;7.10;80.80
69895;DHT22;57172;52.034;5.090;2023-02-11T07:26:07;7.10;80.70
69895;DHT22;57172;52.034;5.090;2023-02-11T07:28:36;7.10;80.80
69895;DHT22;57172;52.034;5.090;2023-02-11T07:31:10;7.10;80.80
69895;DHT22;57172;52.034;5.090;2023-02-11T07:33:37;7.10;80.90
69895;DHT22;57172;52.034;5.090;2023-02-11T07:36:06;7.10;80.90
69895;DHT22;57172;52.034;5.090;2023-02-11T07:38:34;7.10;81.10
69895;DHT22;57172;52.034;5.090;2023-02-11T07:41:06;7.10;81.10
69895;DHT22;57172;52.034;5.090;2023-02-11T07:43:34;7.10;81.10
69895;DHT22;57172;52.034;5.090;2023-02-11T07:46:06;7.10;81.10
69895;DHT22;57172;52.034;5.090;2023-02-11T07:48:33;7.10;81.20
69895;DHT22;57172;52.034;5.090;2023-02-11T07:51:15;7.20;81.20
69895;DHT22;57172;52.034;5.090;2023-02-11T07:53:43;7.20;81.20
69895;DHT22;57172;52.034;5.090;2023-02-11T07:56:11;7.20;81.10
69895;DHT22;57172;52.034;5.090;2023-02-11T07:58:38;7.20;80.90
69895;DHT22;57172;52.034;5.090;2023-02-11T08:01:10;7.20;80.80
69895;DHT22;57172;52.034;5.090;2023-02-11T08:03:38;7.20;80.70
69895;DHT22;57172;52.034;5.090;2023-02-11T08:06:09;7.20;80.70
69895;DHT22;57172;52.034;5.090;2023-02-11T08:08:36;7.20;80.70
69895;DHT22;57172;52.034;5.090;2023-02-11T08:11:12;7.20;80.70
69895;DHT22;57172;52.034;5.090;2023-02-11T08:13:39;7.20;80.60
69895;DHT22;57172;52.034;5.090;2023-02-11T08:16:07;7.20;80.70
69895;DHT22;57172;52.034;5.090;2023-02-11T08:18:35;7.20;80.60
69895;DHT22;57172;52.034;5.090;2023-02-11T08:21:07;7.20;80.70
69895;DHT22;57172;52.034;5.090;2023-02-11T08:23:38;7.30;80.80
69895;DHT22;57172;52.034;5.090;2023-02-11T08:26:09;7.30;80.70
69895;DHT22;57172;52.034;5.090;2023-02-11T08:28:38;7.30;80.70
69895;DHT22;57172;52.034;5.090;2023-02-11T08:31:10;7.30;80.70
69895;DHT22;57172;52.034;5.090;2023-02-11T08:33:38;7.30;80.70
69895;DHT22;57172;52.034;5.090;2023-02-11T08:36:18;7.40;80.60
69895;DHT22;57172;52.034;5.090;2023-02-11T08:38:45;7.40;80.70
69895;DHT22;57172;52.034;5.090;2023-02-11T08:41:13;7.40;80.70
69895;DHT22;57172;52.034;5.090;2023-02-11T08:43:42;7.50;80.70
69895;DHT22;57172;52.034;5.090;2023-02-11T08:46:12;7.50;80.70
69895;DHT22;57172;52.034;5.090;2023-02-11T08:48:40;7.50;80.70
69895;DHT22;57172;52.034;5.090;2023-02-11T08:51:29;7.50;80.60
69895;DHT22;57172;52.034;5.090;2023-02-11T08:53:59;7.60;80.60
69895;DHT22;57172;52.034;5.090;2023-02-11T08:56:26;7.60;80.60
69895;DHT22;57172;52.034;5.090;2023-02-11T08:58:54;7.60;80.60
69895;DHT22;57172;52.034;5.090;2023-02-11T09:01:27;7.60;80.50
69895;DHT22;57172;52.034;5.090;2023-02-11T09:03:55;7.70;80.60
69895;DHT22;57172;52.034;5.090;2023-02-11T09:06:23;7.70;80.50
69895;DHT22;57172;52.034;5.090;2023-02-11T09:08:53;7.70;80.40
69895;DHT22;57172;52.034;5.090;2023-02-11T09:11:24;7.80;80.40
69895;DHT22;57172;52.034;5.090;2023-02-11T09:13:51;7.80;80.60
69895;DHT22;57172;52.034;5.090;2023-02-11T09:16:26;7.80;80.60
69895;DHT22;57172;52.034;5.090;2023-02-11T09:18:55;7.90;80.60
69895;DHT22;57172;52.034;5.090;2023-02-11T09:21:22;7.90;80.60
69895;DHT22;57172;52.034;5.090;2023-02-11T09:23:49;7.90;80.80
69895;DHT22;57172;52.034;5.090;2023-02-11T09:28:46;8.00;80.80
69895;DHT22;57172;52.034;5.090;2023-02-11T09:31:24;8.10;80.70
69895;DHT22;57172;52.034;5.090;2023-02-11T09:33:53;8.10;80.80
69895;DHT22;57172;52.034;5.090;2023-02-11T09:36:26;8.10;80.70
69895;DHT22;57172;52.034;5.090;2023-02-11T09:38:54;8.10;80.60
69895;DHT22;57172;52.034;5.090;2023-02-11T09:43:55;8.20;80.70
69895;DHT22;57172;52.034;5.090;2023-02-11T09:46:23;8.30;80.70
69895;DHT22;57172;52.034;5.090;2023-02-11T09:48:53;8.30;80.60
69895;DHT22;57172;52.034;5.090;2023-02-11T09:51:38;8.40;80.50
69895;DHT22;57172;52.034;5.090;2023-02-11T09:54:24;8.40;80.50
69895;DHT22;57172;52.034;5.090;2023-02-11T09:56:52;8.40;80.50
69895;DHT22;57172;52.034;5.090;2023-02-11T09:59:19;8.50;80.50
69895;DHT22;57172;52.034;5.090;2023-02-11T10:01:52;8.60;80.50
69895;DHT22;57172;52.034;5.090;2023-02-11T10:07:44;8.70;80.50
69895;DHT22;57172;52.034;5.090;2023-02-11T10:19:12;8.90;80.00
69895;DHT22;57172;52.034;5.090;2023-02-11T10:22:01;9.00;80.10
69895;DHT22;57172;52.034;5.090;2023-02-11T10:24:30;9.10;80.00
69895;DHT22;57172;52.034;5.090;2023-02-11T10:26:57;9.10;79.90
69895;DHT22;57172;52.034;5.090;2023-02-11T10:29:36;9.20;79.70
69895;DHT22;57172;52.034;5.090;2023-02-11T10:32:56;9.30;79.70
69895;DHT22;57172;52.034;5.090;2023-02-11T10:35:09;9.40;79.40
69895;DHT22;57172;52.034;5.090;2023-02-11T10:37:38;9.40;79.00
69895;DHT22;57172;52.034;5.090;2023-02-11T10:40:11;9.40;79.00
69895;DHT22;57172;52.034;5.090;2023-02-11T10:42:40;9.50;79.10
69895;DHT22;57172;52.034;5.090;2023-02-11T10:45:31;9.50;78.90
69895;DHT22;57172;52.034;5.090;2023-02-11T10:48:00;9.50;78.80
69895;DHT22;57172;52.034;5.090;2023-02-11T10:50:30;9.60;79.00
69895;DHT22;57172;52.034;5.090;2023-02-11T10:55:38;9.70;78.90
69895;DHT22;57172;52.034;5.090;2023-02-11T10:58:23;9.70;78.90
69895;DHT22;57172;52.034;5.090;2023-02-11T11:00:53;9.80;78.90
69895;DHT22;57172;52.034;5.090;2023-02-11T11:03:23;9.90;78.80
69895;DHT22;57172;52.034;5.090;2023-02-11T11:05:56;9.90;78.50
69895;DHT22;57172;52.034;5.090;2023-02-11T11:08:47;10.00;78.30
69895;DHT22;57172;52.034;5.090;2023-02-11T11:11:19;10.00;78.30
69895;DHT22;57172;52.034;5.090;2023-02-11T11:16:25;10.10;78.40
69895;DHT22;57172;52.034;5.090;2023-02-11T11:19:22;10.20;78.20
69895;DHT22;57172;52.034;5.090;2023-02-11T11:21:51;10.40;78.00
69895;DHT22;57172;52.034;5.090;2023-02-11T11:24:33;10.50;77.50
69895;DHT22;57172;52.034;5.090;2023-02-11T11:27:05;10.50;77.30
69895;DHT22;57172;52.034;5.090;2023-02-11T11:29:38;10.60;77.00
69895;DHT22;57172;52.034;5.090;2023-02-11T11:32:28;10.60;76.60
69895;DHT22;57172;52.034;5.090;2023-02-11T11:35:00;10.70;76.70
69895;DHT22;57172;52.034;5.090;2023-02-11T11:37:31;10.70;76.40
69895;DHT22;57172;52.034;5.090;2023-02-11T11:40:09;10.70;76.40
69895;DHT22;57172;52.034;5.090;2023-02-11T11:42:37;10.80;76.50
69895;DHT22;57172;52.034;5.090;2023-02-11T11:48:19;11.00;76.60
69895;DHT22;57172;52.034;5.090;2023-02-11T11:50:53;11.10;76.10
69895;DHT22;57172;52.034;5.090;2023-02-11T11:56:05;11.20;75.20
69895;DHT22;57172;52.034;5.090;2023-02-11T11:58:34;11.20;75.00
69895;DHT22;57172;52.034;5.090;2023-02-11T12:01:34;11.20;75.30
69895;DHT22;57172;52.034;5.090;2023-02-11T12:11:53;11.20;74.60
69895;DHT22;57172;52.034;5.090;2023-02-11T12:20:00;11.30;74.30
69895;DHT22;57172;52.034;5.090;2023-02-11T12:22:40;11.20;73.80
69895;DHT22;57172;52.034;5.090;2023-02-11T12:25:56;11.20;73.70
69895;DHT22;57172;52.034;5.090;2023-02-11T12:31:22;11.10;73.70
69895;DHT22;57172;52.034;5.090;2023-02-11T12:34:17;11.10;73.60
69895;DHT22;57172;52.034;5.090;2023-02-11T12:37:01;11.00;73.60
69895;DHT22;57172;52.034;5.090;2023-02-11T12:50:34;11.20;74.20
69895;DHT22;57172;52.034;5.090;2023-02-11T12:55:56;11.50;74.40
69895;DHT22;57172;52.034;5.090;2023-02-11T12:58:27;11.70;73.30
69895;DHT22;57172;52.034;5.090;2023-02-11T13:01:18;11.90;72.90
69895;DHT22;57172;52.034;5.090;2023-02-11T13:03:56;12.20;72.60
69895;DHT22;57172;52.034;5.090;2023-02-11T13:06:38;12.40;71.10
69895;DHT22;57172;52.034;5.090;2023-02-11T13:09:13;12.40;69.40
69895;DHT22;57172;52.034;5.090;2023-02-11T13:11:46;12.50;70.00
69895;DHT22;57172;52.034;5.090;2023-02-11T13:14:28;12.80;71.00
69895;DHT22;57172;52.034;5.090;2023-02-11T13:16:56;13.10;70.40
69895;DHT22;57172;52.034;5.090;2023-02-11T13:19:43;13.40;69.00
69895;DHT22;57172;52.034;5.090;2023-02-11T13:22:25;13.50;67.60
69895;DHT22;57172;52.034;5.090;2023-02-11T13:25:13;13.70;66.80
69895;DHT22;57172;52.034;5.090;2023-02-11T13:27:53;13.70;65.60
69895;DHT22;57172;52.034;5.090;2023-02-11T13:30:30;13.60;65.00
69895;DHT22;57172;52.034;5.090;2023-02-11T13:33:01;13.50;65.40
69895;DHT22;57172;52.034;5.090;2023-02-11T13:35:38;13.40;65.00
69895;DHT22;57172;52.034;5.090;2023-02-11T13:40:43;13.10;64.50
69895;DHT22;57172;52.034;5.090;2023-02-11T13:43:24;13.00;64.90
69895;DHT22;57172;52.034;5.090;2023-02-11T13:46:02;12.90;65.30
69895;DHT22;57172;52.034;5.090;2023-02-11T13:48:33;12.90;65.10
69895;DHT22;57172;52.034;5.090;2023-02-11T13:51:10;12.90;65.30
69895;DHT22;57172;52.034;5.090;2023-02-11T13:53:50;12.90;64.90
69895;DHT22;57172;52.034;5.090;2023-02-11T13:56:39;12.70;64.80
69895;DHT22;57172;52.034;5.090;2023-02-11T14:10:59;12.50;65.90
69895;DHT22;57172;52.034;5.090;2023-02-11T14:16:14;12.50;65.70
69895;DHT22;57172;52.034;5.090;2023-02-11T14:32:25;12.40;65.70
69895;DHT22;57172;52.034;5.090;2023-02-11T14:43:17;12.30;66.20
69895;DHT22;57172;52.034;5.090;2023-02-11T14:45:49;12.30;66.10
69895;DHT22;57172;52.034;5.090;2023-02-11T14:48:19;12.30;66.30
69895;DHT22;57172;52.034;5.090;2023-02-11T14:50:51;12.20;66.50
69895;DHT22;57172;52.034;5.090;2023-02-11T14:53:22;12.20;66.50
69895;DHT22;57172;52.034;5.090;2023-02-11T14:55:51;12.20;66.40
69895;DHT22;57172;52.034;5.090;2023-02-11T14:58:29;12.10;66.20
69895;DHT22;57172;52.034;5.090;2023-02-11T15:01:05;12.00;66.20
69895;DHT22;57172;52.034;5.090;2023-02-11T15:03:48;11.90;66.40
69895;DHT22;57172;52.034;5.090;2023-02-11T15:06:21;11.90;66.70
69895;DHT22;57172;52.034;5.090;2023-02-11T15:08:55;11.90;66.70
69895;DHT22;57172;52.034;5.090;2023-02-11T15:11:24;11.90;66.60
69895;DHT22;57172;52.034;5.090;2023-02-11T15:13:51;11.80;66.80
69895;DHT22;57172;52.034;5.090;2023-02-11T15:16:25;11.80;67.00
69895;DHT22;57172;52.034;5.090;2023-02-11T15:19:00;11.90;66.60
69895;DHT22;57172;52.034;5.090;2023-02-11T15:21:31;11.80;66.60
69895;DHT22;57172;52.034;5.090;2023-02-11T15:24:04;11.70;66.80
69895;DHT22;57172;52.034;5.090;2023-02-11T15:26:32;11.60;66.90
69895;DHT22;57172;52.034;5.090;2023-02-11T15:28:59;11.60;66.90
69895;DHT22;57172;52.034;5.090;2023-02-11T15:31:27;11.50;67.10
69895;DHT22;57172;52.034;5.090;2023-02-11T15:34:06;11.50;67.20
69895;DHT22;57172;52.034;5.090;2023-02-11T15:36:35;11.60;67.20
69895;DHT22;57172;52.034;5.090;2023-02-11T15:39:26;11.60;67.20
69895;DHT22;57172;52.034;5.090;2023-02-11T15:42:27;11.60;67.10
69895;DHT22;57172;52.034;5.090;2023-02-11T15:47:48;11.50;67.10
69895;DHT22;57172;52.034;5.090;2023-02-11T15:50:30;11.40;67.20
69895;DHT22;57172;52.034;5.090;2023-02-11T15:56:16;11.30;67.40
69895;DHT22;57172;52.034;5.090;2023-02-11T15:58:45;11.30;67.40
69895;DHT22;57172;52.034;5.090;2023-02-11T16:01:13;11.30;67.50
69895;DHT22;57172;52.034;5.090;2023-02-11T16:03:41;11.20;67.40
69895;DHT22;57172;52.034;5.090;2023-02-11T16:06:26;11.20;67.50
69895;DHT22;57172;52.034;5.090;2023-02-11T16:17:10;10.90;68.30
69895;DHT22;57172;52.034;5.090;2023-02-11T16:19:49;10.90;68.50
69895;DHT22;57172;52.034;5.090;2023-02-11T16:22:24;10.90;68.50
69895;DHT22;57172;52.034;5.090;2023-02-11T16:24:53;11.00;68.40
69895;DHT22;57172;52.034;5.090;2023-02-11T16:27:23;11.00;68.40
69895;DHT22;57172;52.034;5.090;2023-02-11T16:29:51;11.00;68.20
69895;DHT22;57172;52.034;5.090;2023-02-11T16:32:20;11.00;68.20
69895;DHT22;57172;52.034;5.090;2023-02-11T16:34:49;10.90;68.30
69895;DHT22;57172;52.034;5.090;2023-02-11T16:37:16;10.90;68.40
69895;DHT22;57172;52.034;5.090;2023-02-11T16:39:43;10.80;68.40
69895;DHT22;57172;52.034;5.090;2023-02-11T16:42:10;10.80;68.60
69895;DHT22;57172;52.034;5.090;2023-02-11T16:44:37;10.80;68.60
69895;DHT22;57172;52.034;5.090;2023-02-11T16:47:09;10.70;68.70
69895;DHT22;57172;52.034;5.090;2023-02-11T16:49:41;10.70;68.80
69895;DHT22;57172;52.034;5.090;2023-02-11T16:52:12;10.60;69.00
69895;DHT22;57172;52.034;5.090;2023-02-11T16:54:40;10.50;69.10
69895;DHT22;57172;52.034;5.090;2023-02-11T16:57:33;10.50;69.30
69895;DHT22;57172;52.034;5.090;2023-02-11T17:00:00;10.40;69.30
69895;DHT22;57172;52.034;5.090;2023-02-11T17:02:29;10.30;69.40
69895;DHT22;57172;52.034;5.090;2023-02-11T17:05:01;10.30;69.50
69895;DHT22;57172;52.034;5.090;2023-02-11T17:07:29;10.30;69.60
69895;DHT22;57172;52.034;5.090;2023-02-11T17:09:56;10.30;69.60
69895;DHT22;57172;52.034;5.090;2023-02-11T17:12:23;10.20;69.70
69895;DHT22;57172;52.034;5.090;2023-02-11T17:14:51;10.20;69.90
69895;DHT22;57172;52.034;5.090;2023-02-11T17:17:18;10.20;69.90
69895;DHT22;57172;52.034;5.090;2023-02-11T17:19:45;10.20;69.90
69895;DHT22;57172;52.034;5.090;2023-02-11T17:22:13;10.20;69.90
69895;DHT22;57172;52.034;5.090;2023-02-11T17:24:40;10.10;70.00
69895;DHT22;57172;52.034;5.090;2023-02-11T17:27:09;10.10;70.10
69895;DHT22;57172;52.034;5.090;2023-02-11T17:29:36;10.10;70.30
69895;DHT22;57172;52.034;5.090;2023-02-11T17:32:03;10.10;70.30
69895;DHT22;57172;52.034;5.090;2023-02-11T17:34:30;10.10;70.40
69895;DHT22;57172;52.034;5.090;2023-02-11T17:36:57;10.10;70.40
69895;DHT22;57172;52.034;5.090;2023-02-11T17:39:26;10.00;70.60
69895;DHT22;57172;52.034;5.090;2023-02-11T17:41:53;10.00;70.70
69895;DHT22;57172;52.034;5.090;2023-02-11T17:44:19;10.00;70.80
69895;DHT22;57172;52.034;5.090;2023-02-11T17:46:46;9.90;70.90
69895;DHT22;57172;52.034;5.090;2023-02-11T17:49:13;9.90;70.90
69895;DHT22;57172;52.034;5.090;2023-02-11T17:51:41;9.90;70.90
69895;DHT22;57172;52.034;5.090;2023-02-11T17:54:14;10.00;71.00
69895;DHT22;57172;52.034;5.090;2023-02-11T17:56:42;10.00;70.90
69895;DHT22;57172;52.034;5.090;2023-02-11T17:59:11;9.90;70.90
69895;DHT22;57172;52.034;5.090;2023-02-11T18:01:40;9.90;71.00
69895;DHT22;57172;52.034;5.090;2023-02-11T18:04:11;9.90;71.00
69895;DHT22;57172;52.034;5.090;2023-02-11T18:06:38;9.80;71.10
69895;DHT22;57172;52.034;5.090;2023-02-11T18:09:05;9.80;71.20
69895;DHT22;57172;52.034;5.090;2023-02-11T18:11:34;9.80;71.20
69895;DHT22;57172;52.034;5.090;2023-02-11T18:14:03;9.80;71.30
69895;DHT22;57172;52.034;5.090;2023-02-11T18:16:30;9.70;71.40
69895;DHT22;57172;52.034;5.090;2023-02-11T18:18:57;9.70;71.40
69895;DHT22;57172;52.034;5.090;2023-02-11T18:21:24;9.70;71.40
69895;DHT22;57172;52.034;5.090;2023-02-11T18:23:51;9.70;71.40
69895;DHT22;57172;52.034;5.090;2023-02-11T18:26:20;9.70;71.40
69895;DHT22;57172;52.034;5.090;2023-02-11T18:28:47;9.70;71.40
69895;DHT22;57172;52.034;5.090;2023-02-11T18:31:14;9.70;71.40
69895;DHT22;57172;52.034;5.090;2023-02-11T18:33:41;9.70;71.40